createdAt,value
2023-04-29T00:00:11.351Z,100506.66
2023-04-29T00:02:41.523Z,100496.38
2023-04-29T00:05:10.885Z,100505.47
2023-04-29T00:07:39.408Z,100510.44
2023-04-29T00:10:08.653Z,100492.78
2023-04-29T00:12:37.074Z,100496.78
2023-04-29T00:15:06.711Z,100496.88
2023-04-29T00:17:34.984Z,100498.56
2023-04-29T00:20:05.082Z,100493.44
2023-04-29T00:22:33.456Z,100505.31
2023-04-29T00:25:01.675Z,100512.06
2023-04-29T00:27:29.950Z,100505.00
2023-04-29T00:29:58.451Z,100498.31
2023-04-29T00:32:26.850Z,100499.97
2023-04-29T00:34:55.460Z,100495.28
2023-04-29T00:37:25.156Z,100495.28
2023-04-29T00:39:53.505Z,100494.84
2023-04-29T00:42:22.823Z,100494.84
2023-04-29T00:44:51.048Z,100502.13
2023-04-29T00:47:19.271Z,100500.31
2023-04-29T00:49:47.800Z,100498.81
2023-04-29T00:52:16.666Z,100502.94
2023-04-29T00:54:46.632Z,100500.06
2023-04-29T00:57:15.617Z,100496.06
2023-04-29T00:59:45.829Z,100502.06
2023-04-29T01:02:15.205Z,100499.13
2023-04-29T01:04:43.685Z,100498.59
2023-04-29T01:07:17.066Z,100496.50
2023-04-29T01:09:56.953Z,100498.72
2023-04-29T01:12:34.349Z,100493.94
2023-04-29T01:15:07.079Z,100494.81
2023-04-29T01:17:41.516Z,100492.72
2023-04-29T01:20:11.745Z,100485.28
2023-04-29T01:22:40.452Z,100495.25
2023-04-29T01:25:10.644Z,100494.16
2023-04-29T01:27:47.654Z,100484.34
2023-04-29T01:30:33.070Z,100479.94
2023-04-29T01:33:08.212Z,100487.94
2023-04-29T01:35:47.911Z,100493.31
2023-04-29T01:38:24.874Z,100491.50
2023-04-29T01:41:10.230Z,100493.00
2023-04-29T01:43:40.153Z,100491.88
2023-04-29T01:46:11.873Z,100497.59
2023-04-29T01:48:40.855Z,100490.88
2023-04-29T01:51:09.277Z,100491.75
2023-04-29T01:53:37.550Z,100500.03
2023-04-29T01:56:08.319Z,100489.19
2023-04-29T01:58:36.629Z,100490.53
2023-04-29T02:01:05.055Z,100487.28
2023-04-29T02:03:33.495Z,100493.69
2023-04-29T02:06:02.612Z,100485.97
2023-04-29T02:08:30.893Z,100495.06
2023-04-29T02:11:00.647Z,100499.09
2023-04-29T02:13:30.332Z,100491.16
2023-04-29T02:15:58.555Z,100493.81
2023-04-29T02:18:26.826Z,100486.81
2023-04-29T02:21:02.030Z,100490.59
2023-04-29T02:23:30.434Z,100487.34
2023-04-29T02:25:58.792Z,100486.59
2023-04-29T02:28:27.244Z,100484.16
2023-04-29T02:30:57.103Z,100481.59
2023-04-29T02:33:25.368Z,100487.97
2023-04-29T02:35:53.706Z,100488.31
2023-04-29T02:38:22.074Z,100488.03
2023-04-29T02:40:50.574Z,100486.41
2023-04-29T02:43:18.870Z,100482.22
2023-04-29T02:45:47.210Z,100487.31
2023-04-29T02:48:18.511Z,100479.31
2023-04-29T02:50:46.839Z,100479.31
2023-04-29T02:53:15.117Z,100489.22
2023-04-29T02:55:43.400Z,100484.41
2023-04-29T02:58:11.939Z,100485.53
2023-04-29T03:00:42.178Z,100483.91
2023-04-29T03:03:11.070Z,100489.81
2023-04-29T03:05:40.918Z,100488.25
2023-04-29T03:08:10.398Z,100490.63
2023-04-29T03:10:41.380Z,100485.53
2023-04-29T03:13:10.136Z,100485.59
2023-04-29T03:15:39.557Z,100491.41
2023-04-29T03:18:07.876Z,100487.69
2023-04-29T03:20:36.255Z,100485.50
2023-04-29T03:23:05.937Z,100486.00
2023-04-29T03:25:34.250Z,100487.13
2023-04-29T03:28:02.489Z,100487.25
2023-04-29T03:30:30.702Z,100488.72
2023-04-29T03:32:59.138Z,100493.56
2023-04-29T03:35:27.630Z,100494.19
2023-04-29T03:37:55.861Z,100493.44
2023-04-29T03:40:25.525Z,100500.09
2023-04-29T03:42:53.858Z,100498.66
2023-04-29T03:45:22.193Z,100502.19
2023-04-29T03:47:50.439Z,100503.00
2023-04-29T03:50:18.792Z,100505.75
2023-04-29T03:52:47.185Z,100504.56
2023-04-29T03:55:15.472Z,100514.06
2023-04-29T03:57:45.154Z,100506.59
2023-04-29T04:00:14.525Z,100504.19
2023-04-29T04:02:42.980Z,100510.59
2023-04-29T04:05:12.077Z,100513.22
2023-04-29T04:07:40.386Z,100506.41
2023-04-29T04:10:09.236Z,100507.50
2023-04-29T04:12:37.537Z,100512.41
2023-04-29T04:15:08.112Z,100507.66
2023-04-29T04:17:36.386Z,100508.91
2023-04-29T04:20:05.497Z,100510.56
2023-04-29T04:22:33.727Z,100516.59
2023-04-29T04:25:02.106Z,100501.72
2023-04-29T04:27:30.375Z,100508.84
2023-04-29T04:29:58.787Z,100516.03
2023-04-29T04:32:28.507Z,100509.94
2023-04-29T04:34:57.416Z,100509.59
2023-04-29T04:37:25.679Z,100506.63
2023-04-29T04:39:54.104Z,100508.31
2023-04-29T04:42:24.048Z,100507.84
2023-04-29T04:44:54.222Z,100515.69
2023-04-29T04:47:22.492Z,100520.53
2023-04-29T04:49:53.319Z,100512.47
2023-04-29T04:52:22.597Z,100519.72
2023-04-29T04:54:51.013Z,100519.81
2023-04-29T04:57:19.316Z,100514.66
2023-04-29T04:59:47.556Z,100514.72
2023-04-29T05:02:15.862Z,100515.16
2023-04-29T05:04:44.970Z,100521.28
2023-04-29T05:07:14.778Z,100521.03
2023-04-29T05:09:43.030Z,100519.25
2023-04-29T05:12:11.984Z,100528.72
2023-04-29T05:14:40.298Z,100526.59
2023-04-29T05:17:10.118Z,100524.41
2023-04-29T05:19:38.466Z,100522.81
2023-04-29T05:22:07.432Z,100514.94
2023-04-29T05:24:37.115Z,100522.31
2023-04-29T05:27:05.634Z,100522.63
2023-04-29T05:29:33.881Z,100525.13
2023-04-29T05:32:02.373Z,100518.72
2023-04-29T05:34:31.962Z,100518.25
2023-04-29T05:37:00.192Z,100520.97
2023-04-29T05:39:28.417Z,100513.59
2023-04-29T05:41:59.230Z,100521.72
2023-04-29T05:44:27.476Z,100520.28
2023-04-29T05:46:55.718Z,100522.25
2023-04-29T05:49:24.107Z,100521.13
2023-04-29T05:51:52.661Z,100522.16
2023-04-29T05:54:20.960Z,100513.09
2023-04-29T05:56:49.500Z,100527.50
2023-04-29T05:59:19.397Z,100516.22
2023-04-29T06:01:47.909Z,100512.66
2023-04-29T06:04:16.349Z,100515.09
2023-04-29T06:06:44.842Z,100509.34
2023-04-29T06:09:26.326Z,100515.75
2023-04-29T06:11:56.267Z,100517.69
2023-04-29T06:14:26.236Z,100511.50
2023-04-29T06:16:55.031Z,100519.16
2023-04-29T06:19:23.423Z,100503.63
2023-04-29T06:21:51.655Z,100507.34
2023-04-29T06:24:19.994Z,100508.31
2023-04-29T06:26:48.909Z,100512.69
2023-04-29T06:29:17.777Z,100500.19
2023-04-29T06:31:47.443Z,100507.72
2023-04-29T06:34:15.735Z,100513.22
2023-04-29T06:36:44.151Z,100515.88
2023-04-29T06:39:12.364Z,100511.69
2023-04-29T06:41:41.008Z,100506.03
2023-04-29T06:44:09.524Z,100508.44
2023-04-29T06:46:39.421Z,100513.16
2023-04-29T06:49:09.217Z,100503.28
2023-04-29T06:51:38.971Z,100502.94
2023-04-29T06:54:07.269Z,100510.69
2023-04-29T06:56:35.841Z,100501.81
2023-04-29T06:59:04.595Z,100507.84
2023-04-29T07:01:32.866Z,100534.31
2023-04-29T07:04:01.208Z,100513.59
2023-04-29T07:06:30.913Z,100513.63
2023-04-29T07:08:59.221Z,100499.38
2023-04-29T07:11:28.976Z,100506.25
2023-04-29T07:13:57.258Z,100507.72
2023-04-29T07:16:26.849Z,100498.56
2023-04-29T07:18:55.462Z,100513.84
2023-04-29T07:21:23.808Z,100502.13
2023-04-29T07:23:55.079Z,100503.34
2023-04-29T07:26:23.573Z,100501.31
2023-04-29T07:28:51.796Z,100511.75
2023-04-29T07:31:20.167Z,100505.97
2023-04-29T07:33:48.991Z,100505.63
2023-04-29T07:36:17.407Z,100497.41
2023-04-29T07:38:45.681Z,100505.03
2023-04-29T07:41:15.370Z,100513.44
2023-04-29T07:43:43.707Z,100509.22
2023-04-29T07:46:12.005Z,100497.13
2023-04-29T07:48:40.297Z,100501.00
2023-04-29T07:51:13.932Z,100496.13
2023-04-29T07:53:42.213Z,100492.22
2023-04-29T07:56:10.986Z,100505.63
2023-04-29T07:58:40.781Z,100497.59
2023-04-29T08:01:10.414Z,100485.94
2023-04-29T08:03:41.159Z,100495.31
2023-04-29T08:06:10.292Z,100491.25
2023-04-29T08:08:38.725Z,100497.19
2023-04-29T08:11:07.584Z,100489.78
2023-04-29T08:13:35.954Z,100491.34
2023-04-29T08:16:05.677Z,100475.34
2023-04-29T08:18:34.035Z,100480.88
2023-04-29T08:21:02.380Z,100480.38
2023-04-29T08:23:30.892Z,100478.78
2023-04-29T08:25:59.198Z,100467.63
2023-04-29T08:28:27.805Z,100490.03
2023-04-29T08:30:56.707Z,100485.09
2023-04-29T08:33:26.363Z,100480.13
2023-04-29T08:36:00.663Z,100479.38
2023-04-29T08:38:29.065Z,100475.06
2023-04-29T08:40:57.612Z,100461.47
2023-04-29T08:43:26.979Z,100480.47
2023-04-29T08:45:56.023Z,100474.56
2023-04-29T08:48:27.720Z,100468.50
2023-04-29T08:50:58.321Z,100460.97
2023-04-29T08:53:26.933Z,100465.72
2023-04-29T08:55:56.694Z,100459.88
2023-04-29T08:58:26.879Z,100461.78
2023-04-29T09:00:55.586Z,100469.00
2023-04-29T09:03:28.927Z,100455.50
2023-04-29T09:06:01.279Z,100459.03
2023-04-29T09:08:30.077Z,100448.53
2023-04-29T09:10:59.879Z,100450.34
2023-04-29T09:13:29.412Z,100436.69
2023-04-29T09:15:58.144Z,100432.91
2023-04-29T09:18:48.283Z,100435.69
2023-04-29T09:21:21.764Z,100443.03
2023-04-29T09:23:52.882Z,100436.28
2023-04-29T09:26:22.439Z,100430.31
2023-04-29T09:29:09.358Z,100437.19
2023-04-29T09:31:39.800Z,100434.34
2023-04-29T09:34:11.983Z,100422.44
2023-04-29T09:36:46.290Z,100412.00
2023-04-29T09:39:16.640Z,100417.81
2023-04-29T09:42:00.413Z,100418.97
2023-04-29T09:44:32.867Z,100415.13
2023-04-29T09:47:04.152Z,100404.44
2023-04-29T09:49:37.599Z,100402.31
2023-04-29T09:52:07.427Z,100391.97
2023-04-29T09:54:36.988Z,100385.00
2023-04-29T09:57:07.192Z,100397.69
2023-04-29T09:59:37.706Z,100396.69
2023-04-29T10:02:11.802Z,100389.94
2023-04-29T10:04:43.719Z,100396.88
2023-04-29T10:07:17.035Z,100389.03
2023-04-29T10:09:47.576Z,100391.28
2023-04-29T10:12:18.451Z,100396.69
2023-04-29T10:14:52.135Z,100394.44
2023-04-29T10:17:28.835Z,100376.09
2023-04-29T10:20:05.821Z,100386.81
2023-04-29T10:22:46.023Z,100405.38
2023-04-29T10:25:15.120Z,100374.88
2023-04-29T10:27:45.091Z,100364.75
2023-04-29T10:30:15.302Z,100371.94
2023-04-29T10:32:50.958Z,100361.94
2023-04-29T10:35:23.639Z,100365.66
2023-04-29T10:37:53.113Z,100361.59
2023-04-29T10:40:29.119Z,100361.38
2023-04-29T10:42:57.714Z,100355.06
2023-04-29T10:45:28.633Z,100351.00
2023-04-29T10:48:13.756Z,100360.66
2023-04-29T10:51:06.419Z,100353.03
2023-04-29T10:53:34.832Z,100347.97
2023-04-29T10:56:09.606Z,100348.63
2023-04-29T10:58:39.946Z,100350.41
2023-04-29T11:01:10.675Z,100334.53
2023-04-29T11:03:58.717Z,100335.63
2023-04-29T11:06:42.318Z,100344.81
2023-04-29T11:09:14.672Z,100345.19
2023-04-29T11:11:58.334Z,100338.19
2023-04-29T11:14:28.292Z,100339.94
2023-04-29T11:16:59.047Z,100336.75
2023-04-29T11:19:32.510Z,100334.72
2023-04-29T11:22:14.051Z,100339.94
2023-04-29T11:24:53.692Z,100330.81
2023-04-29T11:27:25.609Z,100317.88
2023-04-29T11:29:58.724Z,100324.13
2023-04-29T11:32:27.893Z,100328.59
2023-04-29T11:34:56.611Z,100323.28
2023-04-29T11:37:28.325Z,100311.97
2023-04-29T11:40:02.352Z,100309.59
2023-04-29T11:42:30.667Z,100314.81
2023-04-29T11:45:00.601Z,100301.34
2023-04-29T11:47:30.627Z,100304.97
2023-04-29T11:50:06.400Z,100306.22
2023-04-29T11:52:37.886Z,100300.72
2023-04-29T11:55:07.167Z,100296.72
2023-04-29T11:57:35.639Z,100303.25
2023-04-29T12:00:06.741Z,100284.78
2023-04-29T12:02:37.149Z,100273.16
2023-04-29T12:05:08.854Z,100288.78
2023-04-29T12:07:38.659Z,100274.19
2023-04-29T12:10:11.280Z,100273.69
2023-04-29T12:12:41.049Z,100280.94
2023-04-29T12:15:11.352Z,100272.91
2023-04-29T12:17:40.119Z,100266.84
2023-04-29T12:20:10.809Z,100266.63
2023-04-29T12:22:41.144Z,100270.28
2023-04-29T12:25:10.550Z,100266.88
2023-04-29T12:27:43.262Z,100268.28
2023-04-29T12:30:12.815Z,100262.25
2023-04-29T12:32:41.717Z,100258.84
2023-04-29T12:35:17.754Z,100264.19
2023-04-29T12:37:51.110Z,100268.78
2023-04-29T12:40:20.768Z,100260.16
2023-04-29T12:42:49.345Z,100252.47
2023-04-29T12:45:32.285Z,100260.16
2023-04-29T12:48:01.525Z,100255.81
2023-04-29T12:50:34.451Z,100256.91
2023-04-29T12:53:05.095Z,100260.94
2023-04-29T12:55:35.127Z,100249.59
2023-04-29T12:58:03.734Z,100263.50
2023-04-29T13:00:32.272Z,100249.34
2023-04-29T13:03:02.495Z,100243.88
2023-04-29T13:05:31.051Z,100245.88
2023-04-29T13:07:59.416Z,100239.38
2023-04-29T13:10:29.645Z,100236.00
2023-04-29T13:12:58.011Z,100244.41
2023-04-29T13:15:26.337Z,100235.63
2023-04-29T13:17:55.753Z,100252.06
2023-04-29T13:20:24.091Z,100271.84
2023-04-29T13:22:52.611Z,100280.50
2023-04-29T13:25:21.291Z,100265.19
2023-04-29T13:27:51.563Z,100254.06
2023-04-29T13:30:19.795Z,100258.09
2023-04-29T13:32:54.915Z,100253.94
2023-04-29T13:35:24.908Z,100270.97
2023-04-29T13:37:53.349Z,100278.69
2023-04-29T13:40:21.799Z,100288.03
2023-04-29T13:42:59.650Z,100272.50
2023-04-29T13:45:39.051Z,100279.34
2023-04-29T13:48:26.149Z,100276.56
2023-04-29T13:51:34.267Z,100283.63
2023-04-29T13:54:37.330Z,100279.13
2023-04-29T14:02:21.446Z,100281.22
2023-04-29T14:04:27.675Z,100276.88
2023-04-29T14:06:56.416Z,100289.94
2023-04-29T14:09:25.028Z,100282.91
2023-04-29T14:11:54.132Z,100275.41
2023-04-29T14:14:24.230Z,100285.25
2023-04-29T14:16:52.516Z,100289.09
2023-04-29T14:19:20.916Z,100286.97
2023-04-29T14:21:49.293Z,100282.66
2023-04-29T14:24:17.535Z,100276.72
2023-04-29T14:26:45.817Z,100274.22
2023-04-29T14:29:14.231Z,100270.00
2023-04-29T14:31:44.214Z,100277.09
2023-04-29T14:34:13.538Z,100271.78
2023-04-29T14:36:41.803Z,100280.75
2023-04-29T14:39:10.141Z,100280.50
2023-04-29T14:41:38.361Z,100283.47
2023-04-29T14:44:06.676Z,100281.78
2023-04-29T14:46:35.150Z,100283.13
2023-04-29T14:49:05.142Z,100281.47
2023-04-29T14:51:33.491Z,100279.59
2023-04-29T14:54:01.678Z,100269.09
2023-04-29T14:56:30.094Z,100275.06
2023-04-29T14:58:58.392Z,100276.41
2023-04-29T15:01:28.694Z,100277.16
2023-04-29T15:03:58.253Z,100271.63
2023-04-29T15:06:28.602Z,100277.59
2023-04-29T15:08:57.078Z,100280.63
2023-04-29T15:11:26.203Z,100271.88
2023-04-29T15:13:54.429Z,100272.22
2023-04-29T15:16:22.751Z,100280.25
2023-04-29T15:18:51.664Z,100274.22
2023-04-29T15:21:20.168Z,100272.50
2023-04-29T15:23:49.958Z,100269.38
2023-04-29T15:26:18.214Z,100273.63
2023-04-29T15:28:47.022Z,100270.28
2023-04-29T15:31:15.320Z,100268.06
2023-04-29T15:33:43.573Z,100268.38
2023-04-29T15:36:12.056Z,100277.41
2023-04-29T15:38:40.513Z,100281.53
2023-04-29T15:41:10.166Z,100278.06
2023-04-29T15:43:40.353Z,100280.13
2023-04-29T15:46:08.712Z,100272.69
2023-04-29T15:48:37.004Z,100262.25
2023-04-29T15:51:05.521Z,100262.91
2023-04-29T15:53:33.751Z,100265.44
2023-04-29T15:56:02.204Z,100270.03
2023-04-29T15:58:32.067Z,100264.63
2023-04-29T16:01:00.333Z,100263.34
2023-04-29T16:03:28.655Z,100258.00
2023-04-29T16:05:57.082Z,100257.50
2023-04-29T16:08:25.313Z,100261.94
2023-04-29T16:10:53.796Z,100266.38
2023-04-29T16:13:22.026Z,100254.03
2023-04-29T16:15:51.904Z,100258.59
2023-04-29T16:18:20.484Z,100258.75
2023-04-29T16:20:48.711Z,100250.53
2023-04-29T16:23:16.980Z,100250.66
2023-04-29T16:25:45.451Z,100252.72
2023-04-29T16:28:13.761Z,100255.41
2023-04-29T16:30:42.005Z,100252.84
2023-04-29T16:33:11.676Z,100254.72
2023-04-29T16:35:40.072Z,100254.56
2023-04-29T16:38:08.380Z,100252.81
2023-04-29T16:40:36.675Z,100256.91
2023-04-29T16:43:04.919Z,100260.97
2023-04-29T16:45:33.366Z,100252.94
2023-04-29T16:48:02.701Z,100261.53
2023-04-29T16:50:32.777Z,100257.25
2023-04-29T16:53:01.328Z,100256.91
2023-04-29T16:55:29.791Z,100258.31
2023-04-29T16:57:58.040Z,100255.16
2023-04-29T17:00:26.982Z,100252.44
2023-04-29T17:02:58.575Z,100250.19
2023-04-29T17:05:27.671Z,100260.91
2023-04-29T17:07:57.434Z,100262.28
2023-04-29T17:10:25.724Z,100271.56
2023-04-29T17:12:54.798Z,100264.38
2023-04-29T17:15:23.088Z,100270.53
2023-04-29T17:17:51.644Z,100269.56
2023-04-29T17:20:20.644Z,100270.25
2023-04-29T17:22:49.192Z,100277.00
2023-04-29T17:25:19.273Z,100278.50
2023-04-29T17:27:48.065Z,100270.00
2023-04-29T17:30:16.586Z,100276.44
2023-04-29T17:32:47.271Z,100276.75
2023-04-29T17:35:15.608Z,100277.66
2023-04-29T17:37:43.864Z,100274.00
2023-04-29T17:40:12.823Z,100270.25
2023-04-29T17:42:42.618Z,100276.00
2023-04-29T17:45:12.060Z,100283.72
2023-04-29T17:47:40.567Z,100283.72
2023-04-29T17:50:09.741Z,100280.56
2023-04-29T17:52:38.001Z,100282.75
2023-04-29T17:55:07.367Z,100290.88
2023-04-29T17:57:36.578Z,100288.81
2023-04-29T18:00:07.529Z,100289.31
2023-04-29T18:02:35.912Z,100292.31
2023-04-29T18:05:04.618Z,100286.94
2023-04-29T18:07:32.942Z,100293.88
2023-04-29T18:10:01.140Z,100290.81
2023-04-29T18:12:29.491Z,100288.81
2023-04-29T18:14:58.536Z,100291.63
2023-04-29T18:17:28.283Z,100286.75
2023-04-29T18:19:56.896Z,100295.84
2023-04-29T18:22:25.218Z,100301.81
2023-04-29T18:24:53.570Z,100292.53
2023-04-29T18:27:22.016Z,100293.44
2023-04-29T18:29:50.817Z,100288.69
2023-04-29T18:32:19.244Z,100293.91
2023-04-29T18:34:49.559Z,100298.69
2023-04-29T18:37:17.820Z,100285.72
2023-04-29T18:39:46.057Z,100293.06
2023-04-29T18:42:14.408Z,100286.44
2023-04-29T18:44:42.699Z,100288.03
2023-04-29T18:47:10.924Z,100291.91
2023-04-29T18:49:39.176Z,100290.00
2023-04-29T18:52:08.913Z,100294.06
2023-04-29T18:54:37.343Z,100294.78
2023-04-29T18:57:06.978Z,100287.06
2023-04-29T18:59:37.714Z,100286.84
2023-04-29T19:02:06.898Z,100286.53
2023-04-29T19:04:35.492Z,100279.91
2023-04-29T19:07:06.200Z,100286.84
2023-04-29T19:09:35.906Z,100275.56
2023-04-29T19:12:04.964Z,100279.53
2023-04-29T19:14:34.333Z,100276.94
2023-04-29T19:17:02.745Z,100274.66
2023-04-29T19:19:31.485Z,100276.03
2023-04-29T19:21:59.952Z,100276.34
2023-04-29T19:24:28.310Z,100274.56
2023-04-29T19:26:57.974Z,100269.03
2023-04-29T19:29:26.963Z,100272.59
2023-04-29T19:31:55.188Z,100277.00
2023-04-29T19:34:23.438Z,100269.75
2023-04-29T19:36:51.934Z,100266.78
2023-04-29T19:39:20.505Z,100267.97
2023-04-29T19:41:48.812Z,100272.31
2023-04-29T19:44:18.529Z,100264.25
2023-04-29T19:46:46.903Z,100258.97
2023-04-29T19:49:15.807Z,100261.44
2023-04-29T19:51:44.073Z,100252.72
2023-04-29T19:54:12.399Z,100253.91
2023-04-29T19:56:40.805Z,100243.81
2023-04-29T19:59:09.086Z,100243.63
2023-04-29T20:01:38.864Z,100241.03
2023-04-29T20:04:07.171Z,100235.50
2023-04-29T20:06:37.581Z,100235.13
2023-04-29T20:09:06.207Z,100227.22
2023-04-29T20:11:34.447Z,100223.75
2023-04-29T20:14:02.811Z,100223.06
2023-04-29T20:16:31.631Z,100222.28
2023-04-29T20:19:01.294Z,100217.72
2023-04-29T20:21:29.567Z,100205.25
2023-04-29T20:23:57.904Z,100205.66
2023-04-29T20:26:27.376Z,100206.94
2023-04-29T20:28:55.638Z,100208.81
2023-04-29T20:31:23.948Z,100204.16
2023-04-29T20:33:53.406Z,100199.53
2023-04-29T20:36:24.306Z,100199.94
2023-04-29T20:38:52.720Z,100201.63
2023-04-29T20:41:20.978Z,100203.69
2023-04-29T20:43:49.321Z,100198.53
2023-04-29T20:46:18.872Z,100196.16
2023-04-29T20:48:47.277Z,100199.41
2023-04-29T20:51:15.551Z,100189.38
2023-04-29T20:53:45.269Z,100197.91
2023-04-29T20:56:13.857Z,100200.16
2023-04-29T20:58:42.204Z,100191.22
2023-04-29T21:01:10.445Z,100186.38
2023-04-29T21:03:38.850Z,100190.75
2023-04-29T21:06:07.618Z,100184.38
2023-04-29T21:08:36.021Z,100189.41
2023-04-29T21:11:07.799Z,100184.75
2023-04-29T21:13:36.353Z,100181.28
2023-04-29T21:16:05.114Z,100189.69
2023-04-29T21:18:33.441Z,100183.91
2023-04-29T21:21:01.714Z,100183.75
2023-04-29T21:23:30.109Z,100180.16
2023-04-29T21:25:58.426Z,100181.78
2023-04-29T21:28:28.076Z,100178.25
2023-04-29T21:30:56.519Z,100175.31
2023-04-29T21:33:24.892Z,100182.06
2023-04-29T21:35:53.219Z,100178.91
2023-04-29T21:38:21.829Z,100183.91
2023-04-29T21:40:50.328Z,100173.34
2023-04-29T21:43:19.620Z,100178.19
2023-04-29T21:45:50.173Z,100175.72
2023-04-29T21:48:20.305Z,100172.41
2023-04-29T21:50:48.953Z,100169.59
2023-04-29T21:53:17.182Z,100167.97
2023-04-29T21:55:45.655Z,100166.59
2023-04-29T21:58:14.250Z,100163.97
2023-04-29T22:00:51.360Z,100165.88
2023-04-29T22:03:21.467Z,100157.72
2023-04-29T22:05:49.787Z,100161.66
2023-04-29T22:08:18.439Z,100158.69
2023-04-29T22:10:46.773Z,100150.50
2023-04-29T22:13:15.482Z,100149.72
2023-04-29T22:15:43.814Z,100142.63
2023-04-29T22:18:12.108Z,100149.19
2023-04-29T22:20:41.830Z,100146.53
2023-04-29T22:23:10.332Z,100140.25
2023-04-29T22:25:38.772Z,100147.34
2023-04-29T22:28:07.218Z,100145.16
2023-04-29T22:30:35.532Z,100142.34
2023-04-29T22:33:04.018Z,100139.84
2023-04-29T22:35:32.242Z,100143.94
2023-04-29T22:38:02.001Z,100134.47
2023-04-29T22:40:30.336Z,100135.06
2023-04-29T22:42:58.840Z,100130.03
2023-04-29T22:45:27.194Z,100128.16
2023-04-29T22:47:55.579Z,100127.66
2023-04-29T22:50:23.801Z,100125.28
2023-04-29T22:52:52.337Z,100127.34
2023-04-29T22:55:22.269Z,100123.72
2023-04-29T22:57:52.058Z,100117.25
2023-04-29T23:00:20.501Z,100103.38
2023-04-29T23:02:49.188Z,100112.19
2023-04-29T23:05:17.618Z,100105.84
2023-04-29T23:07:45.919Z,100102.72
2023-04-29T23:10:14.243Z,100106.63
2023-04-29T23:12:44.049Z,100106.28
2023-04-29T23:15:12.493Z,100101.41
2023-04-29T23:17:40.835Z,100096.97
2023-04-29T23:20:10.087Z,100094.59
2023-04-29T23:22:38.521Z,100095.84
2023-04-29T23:25:07.348Z,100090.00
2023-04-29T23:27:35.872Z,100095.38
2023-04-29T23:30:06.578Z,100100.72
2023-04-29T23:32:35.072Z,100096.47
2023-04-29T23:35:03.637Z,100089.19
2023-04-29T23:37:31.931Z,100089.34
2023-04-29T23:40:00.207Z,100089.78
2023-04-29T23:42:28.457Z,100089.97
2023-04-29T23:44:56.741Z,100092.44
2023-04-29T23:47:26.574Z,100091.38
2023-04-29T23:49:55.139Z,100086.63
2023-04-29T23:52:24.035Z,100087.56
2023-04-29T23:54:52.435Z,100080.81
2023-04-29T23:57:20.775Z,100091.00
2023-04-29T23:59:49.051Z,100082.38
